Aérodrome :
LOGIN :

S'inscrire | Disclaimer

   EN    FR    IT 

 










Légende :    VFR   VFR Marginal   IFR   IFR Intensif   IFR Très Intensif
Visi : 
Plafond : 
>= 8 km
>= 3000ft
5 à 8 km
1000 à 3000 ft
1500m à 5 km
500 à 1000 ft
800 à 1500m
200 à 500 ft
< 800m
< 200 ft
Symboles :   Orages  Brouillard  Fortes neiges  Fortes précipitations  Vent > 20 kt
SIGMETs :   Divers  Orages  Givrage  Turbulence  Onde Orograph.  Cendres Volcan.






- Altitude de l'aérodrome : 463 ft
- Code IATA : QAS


DAOI - Chlef Int.

DERNIER METAR :
  • 211300Z 24009KT 9999 FEW026 SCT230 17/10 Q1011

METARs EXPIRÉS :
  • 211200Z 23009KT 200V270 9999 FEW026 SCT230 17/10 Q1012
  • 211100Z 23006KT 180V260 9999 FEW026 BKN230 16/10 Q1013

TAF TAF DAOI
Valide du 21 à 12h jusqu'au 22 à 12h UTC


211100Z 2112/2212 22011KT 9999 SCT026 BKN100
TEMPO 2112/2118 24016KT FEW030TCU
BECMG 2121/24 VRB02KT
BECMG 2200/2203 BKN030
PROB30
TEMPO 2200/2206 6000 FEW030CB SCT033TCU



MET'MAP, la Météo Aéronautique d'un coup d'oeil ! - Copyright ORBIFLY Décembre 2007 - Disclaimer

ORBIFLY MET'MAP TEAM :

Programmation & Développement : Alexandra Zaïnal
Conception & Développement : Baudouin d'Aumeries
Co-Programmation & Développement : Marc-Olivier Méhu
Soutien technique & logistique : Manuel Goepfert

Contact : metmap@orbifly.com




SOURCES & CREDITS :

   NOAA